sensor_id;sensor_type;location;lat;lon;timestamp;temperature;humidity
10314;DHT22;5202;49.138;10.090;2023-08-01T00:01:10;16.90;99.90
10314;DHT22;5202;49.138;10.090;2023-08-01T00:03:42;16.90;99.90
10314;DHT22;5202;49.138;10.090;2023-08-01T00:06:10;16.90;99.90
10314;DHT22;5202;49.138;10.090;2023-08-01T00:08:40;16.90;99.90
10314;DHT22;5202;49.138;10.090;2023-08-01T00:11:08;16.90;99.90
10314;DHT22;5202;49.138;10.090;2023-08-01T00:13:38;16.90;99.90
10314;DHT22;5202;49.138;10.090;2023-08-01T00:16:06;16.90;99.90
10314;DHT22;5202;49.138;10.090;2023-08-01T00:18:35;16.90;99.90
10314;DHT22;5202;49.138;10.090;2023-08-01T00:21:04;16.90;99.90
10314;DHT22;5202;49.138;10.090;2023-08-01T00:23:36;17.00;99.90
10314;DHT22;5202;49.138;10.090;2023-08-01T00:26:05;16.90;99.90
10314;DHT22;5202;49.138;10.090;2023-08-01T00:28:33;16.90;99.90
10314;DHT22;5202;49.138;10.090;2023-08-01T00:31:04;16.90;99.90
10314;DHT22;5202;49.138;10.090;2023-08-01T00:33:33;16.90;99.90
10314;DHT22;5202;49.138;10.090;2023-08-01T00:36:01;16.90;99.90
10314;DHT22;5202;49.138;10.090;2023-08-01T00:38:30;16.90;99.90
10314;DHT22;5202;49.138;10.090;2023-08-01T00:40:58;16.90;99.90
10314;DHT22;5202;49.138;10.090;2023-08-01T00:43:28;16.80;99.90
10314;DHT22;5202;49.138;10.090;2023-08-01T00:45:59;16.80;99.90
10314;DHT22;5202;49.138;10.090;2023-08-01T00:48:28;16.80;99.90
10314;DHT22;5202;49.138;10.090;2023-08-01T00:50:59;16.70;99.90
10314;DHT22;5202;49.138;10.090;2023-08-01T00:53:28;16.70;99.90
10314;DHT22;5202;49.138;10.090;2023-08-01T00:55:58;16.60;99.90
10314;DHT22;5202;49.138;10.090;2023-08-01T00:58:28;16.60;99.90
10314;DHT22;5202;49.138;10.090;2023-08-01T01:00:56;16.60;99.90
10314;DHT22;5202;49.138;10.090;2023-08-01T01:03:27;16.60;99.90
10314;DHT22;5202;49.138;10.090;2023-08-01T01:06:05;16.60;99.90
10314;DHT22;5202;49.138;10.090;2023-08-01T01:08:36;16.50;99.90
10314;DHT22;5202;49.138;10.090;2023-08-01T01:11:04;16.50;99.90
10314;DHT22;5202;49.138;10.090;2023-08-01T01:13:34;16.40;99.90
10314;DHT22;5202;49.138;10.090;2023-08-01T01:16:02;16.40;99.90
10314;DHT22;5202;49.138;10.090;2023-08-01T01:18:31;16.40;99.90
10314;DHT22;5202;49.138;10.090;2023-08-01T01:21:01;16.30;99.90
10314;DHT22;5202;49.138;10.090;2023-08-01T01:23:30;16.30;99.90
10314;DHT22;5202;49.138;10.090;2023-08-01T01:25:58;16.30;99.90
10314;DHT22;5202;49.138;10.090;2023-08-01T01:28:28;16.30;99.90
10314;DHT22;5202;49.138;10.090;2023-08-01T01:30:57;16.30;99.90
10314;DHT22;5202;49.138;10.090;2023-08-01T01:33:26;16.30;99.90
10314;DHT22;5202;49.138;10.090;2023-08-01T01:35:54;16.30;99.90
10314;DHT22;5202;49.138;10.090;2023-08-01T01:38:24;16.30;99.90
10314;DHT22;5202;49.138;10.090;2023-08-01T01:40:52;16.30;99.90
10314;DHT22;5202;49.138;10.090;2023-08-01T01:43:21;16.30;99.90
10314;DHT22;5202;49.138;10.090;2023-08-01T01:45:49;16.30;99.90
10314;DHT22;5202;49.138;10.090;2023-08-01T01:48:17;16.30;99.90
10314;DHT22;5202;49.138;10.090;2023-08-01T01:50:46;16.30;99.90
10314;DHT22;5202;49.138;10.090;2023-08-01T01:53:14;16.30;99.90
10314;DHT22;5202;49.138;10.090;2023-08-01T01:55:44;16.30;99.90
10314;DHT22;5202;49.138;10.090;2023-08-01T01:58:13;16.30;99.90
10314;DHT22;5202;49.138;10.090;2023-08-01T02:00:41;16.30;99.90
10314;DHT22;5202;49.138;10.090;2023-08-01T02:03:10;16.30;99.90
10314;DHT22;5202;49.138;10.090;2023-08-01T02:05:49;16.30;99.90
10314;DHT22;5202;49.138;10.090;2023-08-01T02:08:18;16.30;99.90
10314;DHT22;5202;49.138;10.090;2023-08-01T02:10:49;16.30;99.90
10314;DHT22;5202;49.138;10.090;2023-08-01T02:13:17;16.30;99.90
10314;DHT22;5202;49.138;10.090;2023-08-01T02:15:46;16.20;99.90
10314;DHT22;5202;49.138;10.090;2023-08-01T02:18:14;16.10;99.90
10314;DHT22;5202;49.138;10.090;2023-08-01T02:20:42;16.20;99.90
10314;DHT22;5202;49.138;10.090;2023-08-01T02:23:11;16.30;99.90
10314;DHT22;5202;49.138;10.090;2023-08-01T02:25:43;16.20;99.90
10314;DHT22;5202;49.138;10.090;2023-08-01T02:28:12;16.20;99.90
10314;DHT22;5202;49.138;10.090;2023-08-01T02:30:41;16.10;99.90
10314;DHT22;5202;49.138;10.090;2023-08-01T02:33:10;16.10;99.90
10314;DHT22;5202;49.138;10.090;2023-08-01T02:35:38;16.10;99.90
10314;DHT22;5202;49.138;10.090;2023-08-01T02:38:07;16.10;99.90
10314;DHT22;5202;49.138;10.090;2023-08-01T02:40:35;16.10;99.90
10314;DHT22;5202;49.138;10.090;2023-08-01T02:43:04;16.10;99.90
10314;DHT22;5202;49.138;10.090;2023-08-01T02:45:34;16.10;99.90
10314;DHT22;5202;49.138;10.090;2023-08-01T02:48:03;16.00;99.90
10314;DHT22;5202;49.138;10.090;2023-08-01T02:50:31;16.00;99.90
10314;DHT22;5202;49.138;10.090;2023-08-01T02:53:00;16.00;99.90
10314;DHT22;5202;49.138;10.090;2023-08-01T02:55:28;16.00;99.90
10314;DHT22;5202;49.138;10.090;2023-08-01T02:57:57;16.00;99.90
10314;DHT22;5202;49.138;10.090;2023-08-01T03:00:25;16.00;99.90
10314;DHT22;5202;49.138;10.090;2023-08-01T03:02:55;16.00;99.90
10314;DHT22;5202;49.138;10.090;2023-08-01T03:05:24;16.00;99.90
10314;DHT22;5202;49.138;10.090;2023-08-01T03:08:18;16.00;99.90
10314;DHT22;5202;49.138;10.090;2023-08-01T03:10:46;16.00;99.90
10314;DHT22;5202;49.138;10.090;2023-08-01T03:13:14;16.00;99.90
10314;DHT22;5202;49.138;10.090;2023-08-01T03:15:43;16.00;99.90
10314;DHT22;5202;49.138;10.090;2023-08-01T03:18:12;16.00;99.90
10314;DHT22;5202;49.138;10.090;2023-08-01T03:20:41;16.00;99.90
10314;DHT22;5202;49.138;10.090;2023-08-01T03:23:09;16.00;99.90
10314;DHT22;5202;49.138;10.090;2023-08-01T03:25:38;16.00;99.90
10314;DHT22;5202;49.138;10.090;2023-08-01T03:28:06;16.00;99.90
10314;DHT22;5202;49.138;10.090;2023-08-01T03:30:36;15.90;99.90
10314;DHT22;5202;49.138;10.090;2023-08-01T03:33:04;15.90;99.90
10314;DHT22;5202;49.138;10.090;2023-08-01T03:35:34;15.90;99.90
10314;DHT22;5202;49.138;10.090;2023-08-01T03:38:02;15.90;99.90
10314;DHT22;5202;49.138;10.090;2023-08-01T03:40:31;15.90;99.90
10314;DHT22;5202;49.138;10.090;2023-08-01T03:42:59;15.90;99.90
10314;DHT22;5202;49.138;10.090;2023-08-01T03:45:28;15.90;99.90
10314;DHT22;5202;49.138;10.090;2023-08-01T03:47:56;15.90;99.90
10314;DHT22;5202;49.138;10.090;2023-08-01T03:50:25;15.90;99.90
10314;DHT22;5202;49.138;10.090;2023-08-01T03:52:55;15.90;99.90
10314;DHT22;5202;49.138;10.090;2023-08-01T03:55:24;15.90;99.90
10314;DHT22;5202;49.138;10.090;2023-08-01T03:57:52;15.90;99.90
10314;DHT22;5202;49.138;10.090;2023-08-01T04:00:21;15.90;99.90
10314;DHT22;5202;49.138;10.090;2023-08-01T04:02:49;15.90;99.90
10314;DHT22;5202;49.138;10.090;2023-08-01T04:05:18;15.90;99.90
10314;DHT22;5202;49.138;10.090;2023-08-01T04:07:46;15.90;99.90
10314;DHT22;5202;49.138;10.090;2023-08-01T04:10:16;15.90;99.90
10314;DHT22;5202;49.138;10.090;2023-08-01T04:12:48;15.90;99.90
10314;DHT22;5202;49.138;10.090;2023-08-01T04:15:17;15.90;99.90
10314;DHT22;5202;49.138;10.090;2023-08-01T04:17:48;15.90;99.90
10314;DHT22;5202;49.138;10.090;2023-08-01T04:20:17;15.90;99.90
10314;DHT22;5202;49.138;10.090;2023-08-01T04:22:45;15.90;99.90
10314;DHT22;5202;49.138;10.090;2023-08-01T04:25:13;16.00;99.90
10314;DHT22;5202;49.138;10.090;2023-08-01T04:27:43;16.00;99.90
10314;DHT22;5202;49.138;10.090;2023-08-01T04:30:11;16.00;99.90
10314;DHT22;5202;49.138;10.090;2023-08-01T04:32:40;16.00;99.90
10314;DHT22;5202;49.138;10.090;2023-08-01T04:35:08;15.90;99.90
10314;DHT22;5202;49.138;10.090;2023-08-01T04:37:37;15.90;99.90
10314;DHT22;5202;49.138;10.090;2023-08-01T04:40:06;16.00;99.90
10314;DHT22;5202;49.138;10.090;2023-08-01T04:42:38;16.00;99.90
10314;DHT22;5202;49.138;10.090;2023-08-01T04:45:07;16.00;99.90
10314;DHT22;5202;49.138;10.090;2023-08-01T04:47:36;16.00;99.90
10314;DHT22;5202;49.138;10.090;2023-08-01T04:50:05;16.00;99.90
10314;DHT22;5202;49.138;10.090;2023-08-01T04:52:34;16.00;99.90
10314;DHT22;5202;49.138;10.090;2023-08-01T04:55:03;16.00;99.90
10314;DHT22;5202;49.138;10.090;2023-08-01T04:57:32;16.10;99.90
10314;DHT22;5202;49.138;10.090;2023-08-01T05:00:02;16.10;99.90
10314;DHT22;5202;49.138;10.090;2023-08-01T05:02:31;16.10;99.90
10314;DHT22;5202;49.138;10.090;2023-08-01T05:04:59;16.10;99.90
10314;DHT22;5202;49.138;10.090;2023-08-01T05:07:28;16.10;99.90
10314;DHT22;5202;49.138;10.090;2023-08-01T05:09:56;16.10;99.90
10314;DHT22;5202;49.138;10.090;2023-08-01T05:12:24;16.10;99.90
10314;DHT22;5202;49.138;10.090;2023-08-01T05:14:53;16.10;99.90
10314;DHT22;5202;49.138;10.090;2023-08-01T05:17:23;16.20;99.90
10314;DHT22;5202;49.138;10.090;2023-08-01T05:19:51;16.20;99.90
10314;DHT22;5202;49.138;10.090;2023-08-01T05:22:20;16.20;99.90
10314;DHT22;5202;49.138;10.090;2023-08-01T05:24:49;16.20;99.90
10314;DHT22;5202;49.138;10.090;2023-08-01T05:27:17;16.20;99.90
10314;DHT22;5202;49.138;10.090;2023-08-01T05:29:45;16.20;99.90
10314;DHT22;5202;49.138;10.090;2023-08-01T05:32:13;16.20;99.90
10314;DHT22;5202;49.138;10.090;2023-08-01T05:34:43;16.20;99.90
10314;DHT22;5202;49.138;10.090;2023-08-01T05:37:12;16.30;99.90
10314;DHT22;5202;49.138;10.090;2023-08-01T05:39:40;16.30;99.90
10314;DHT22;5202;49.138;10.090;2023-08-01T05:42:08;16.30;99.90
10314;DHT22;5202;49.138;10.090;2023-08-01T05:44:37;16.30;99.90
10314;DHT22;5202;49.138;10.090;2023-08-01T05:47:05;16.30;99.90
10314;DHT22;5202;49.138;10.090;2023-08-01T05:49:33;16.30;99.90
10314;DHT22;5202;49.138;10.090;2023-08-01T05:52:03;16.30;99.90
10314;DHT22;5202;49.138;10.090;2023-08-01T05:54:33;16.30;99.90
10314;DHT22;5202;49.138;10.090;2023-08-01T05:57:01;16.30;99.90
10314;DHT22;5202;49.138;10.090;2023-08-01T05:59:29;16.40;99.90
10314;DHT22;5202;49.138;10.090;2023-08-01T06:01:58;16.30;99.90
10314;DHT22;5202;49.138;10.090;2023-08-01T06:04:41;16.30;99.90
10314;DHT22;5202;49.138;10.090;2023-08-01T06:07:14;16.30;99.90
10314;DHT22;5202;49.138;10.090;2023-08-01T06:09:42;16.30;99.90
10314;DHT22;5202;49.138;10.090;2023-08-01T06:12:11;16.30;99.90
10314;DHT22;5202;49.138;10.090;2023-08-01T06:14:39;16.30;99.90
10314;DHT22;5202;49.138;10.090;2023-08-01T06:17:07;16.40;99.90
10314;DHT22;5202;49.138;10.090;2023-08-01T06:19:36;16.40;99.90
10314;DHT22;5202;49.138;10.090;2023-08-01T06:22:04;16.40;99.90
10314;DHT22;5202;49.138;10.090;2023-08-01T06:24:34;16.40;99.90
10314;DHT22;5202;49.138;10.090;2023-08-01T06:27:03;16.50;99.90
10314;DHT22;5202;49.138;10.090;2023-08-01T06:29:32;16.50;99.90
10314;DHT22;5202;49.138;10.090;2023-08-01T06:32:00;16.50;99.90
10314;DHT22;5202;49.138;10.090;2023-08-01T06:34:29;16.60;99.90
10314;DHT22;5202;49.138;10.090;2023-08-01T06:36:59;16.60;99.90
10314;DHT22;5202;49.138;10.090;2023-08-01T06:39:28;16.60;99.90
10314;DHT22;5202;49.138;10.090;2023-08-01T06:41:57;16.60;99.90
10314;DHT22;5202;49.138;10.090;2023-08-01T06:44:26;16.60;99.90
10314;DHT22;5202;49.138;10.090;2023-08-01T06:46:54;16.60;99.90
10314;DHT22;5202;49.138;10.090;2023-08-01T06:49:22;16.60;99.90
10314;DHT22;5202;49.138;10.090;2023-08-01T06:51:51;16.60;99.90
10314;DHT22;5202;49.138;10.090;2023-08-01T06:54:19;16.50;99.90
10314;DHT22;5202;49.138;10.090;2023-08-01T06:56:47;16.50;99.90
10314;DHT22;5202;49.138;10.090;2023-08-01T06:59:17;16.40;99.90
10314;DHT22;5202;49.138;10.090;2023-08-01T07:01:45;16.40;99.90
10314;DHT22;5202;49.138;10.090;2023-08-01T07:04:14;16.30;99.90
10314;DHT22;5202;49.138;10.090;2023-08-01T07:06:42;16.20;99.90
10314;DHT22;5202;49.138;10.090;2023-08-01T07:09:11;16.20;99.90
10314;DHT22;5202;49.138;10.090;2023-08-01T07:11:39;16.20;99.90
10314;DHT22;5202;49.138;10.090;2023-08-01T07:14:07;16.10;99.90
10314;DHT22;5202;49.138;10.090;2023-08-01T07:16:37;16.10;99.90
10314;DHT22;5202;49.138;10.090;2023-08-01T07:19:06;16.10;99.90
10314;DHT22;5202;49.138;10.090;2023-08-01T07:21:34;16.10;99.90
10314;DHT22;5202;49.138;10.090;2023-08-01T07:24:03;16.00;99.90
10314;DHT22;5202;49.138;10.090;2023-08-01T07:26:32;16.00;99.90
10314;DHT22;5202;49.138;10.090;2023-08-01T07:29:00;15.90;99.90
10314;DHT22;5202;49.138;10.090;2023-08-01T07:31:29;15.90;99.90
10314;DHT22;5202;49.138;10.090;2023-08-01T07:33:59;15.80;99.90
10314;DHT22;5202;49.138;10.090;2023-08-01T07:36:27;15.70;99.90
10314;DHT22;5202;49.138;10.090;2023-08-01T07:38:55;15.70;99.90
10314;DHT22;5202;49.138;10.090;2023-08-01T07:41:24;15.60;99.90
10314;DHT22;5202;49.138;10.090;2023-08-01T07:43:52;15.60;99.90
10314;DHT22;5202;49.138;10.090;2023-08-01T07:46:20;15.60;99.90
10314;DHT22;5202;49.138;10.090;2023-08-01T07:48:49;15.60;99.90
10314;DHT22;5202;49.138;10.090;2023-08-01T07:51:21;15.60;99.90
10314;DHT22;5202;49.138;10.090;2023-08-01T07:53:51;15.60;99.90
10314;DHT22;5202;49.138;10.090;2023-08-01T07:56:21;15.60;99.90
10314;DHT22;5202;49.138;10.090;2023-08-01T07:58:50;15.50;99.90
10314;DHT22;5202;49.138;10.090;2023-08-01T08:01:18;15.50;99.90
10314;DHT22;5202;49.138;10.090;2023-08-01T08:03:51;15.50;99.90
10314;DHT22;5202;49.138;10.090;2023-08-01T08:06:20;15.50;99.90
10314;DHT22;5202;49.138;10.090;2023-08-01T08:08:50;15.50;99.90
10314;DHT22;5202;49.138;10.090;2023-08-01T08:11:19;15.40;99.90
10314;DHT22;5202;49.138;10.090;2023-08-01T08:13:47;15.50;99.90
10314;DHT22;5202;49.138;10.090;2023-08-01T08:16:15;15.50;99.90
10314;DHT22;5202;49.138;10.090;2023-08-01T08:18:44;15.50;99.90
10314;DHT22;5202;49.138;10.090;2023-08-01T08:21:12;15.50;99.90
10314;DHT22;5202;49.138;10.090;2023-08-01T08:23:42;15.50;99.90
10314;DHT22;5202;49.138;10.090;2023-08-01T08:26:28;15.50;99.90
10314;DHT22;5202;49.138;10.090;2023-08-01T08:28:58;15.50;99.90
10314;DHT22;5202;49.138;10.090;2023-08-01T08:31:26;15.50;99.90
10314;DHT22;5202;49.138;10.090;2023-08-01T08:33:55;15.50;99.90
10314;DHT22;5202;49.138;10.090;2023-08-01T08:36:23;15.50;99.90
10314;DHT22;5202;49.138;10.090;2023-08-01T08:38:53;15.50;99.90
10314;DHT22;5202;49.138;10.090;2023-08-01T08:41:26;15.60;99.90
10314;DHT22;5202;49.138;10.090;2023-08-01T08:43:56;15.60;99.90
10314;DHT22;5202;49.138;10.090;2023-08-01T08:46:28;15.70;99.90
10314;DHT22;5202;49.138;10.090;2023-08-01T08:48:57;15.80;99.90
10314;DHT22;5202;49.138;10.090;2023-08-01T08:51:28;15.80;99.90
10314;DHT22;5202;49.138;10.090;2023-08-01T08:53:59;15.80;99.90
10314;DHT22;5202;49.138;10.090;2023-08-01T08:56:29;15.90;99.90
10314;DHT22;5202;49.138;10.090;2023-08-01T08:59:17;15.90;99.90
10314;DHT22;5202;49.138;10.090;2023-08-01T09:01:46;15.90;99.90
10314;DHT22;5202;49.138;10.090;2023-08-01T09:04:14;16.00;99.90
10314;DHT22;5202;49.138;10.090;2023-08-01T09:06:45;16.10;99.90
10314;DHT22;5202;49.138;10.090;2023-08-01T09:09:19;16.20;99.90
10314;DHT22;5202;49.138;10.090;2023-08-01T09:11:51;16.30;99.90
10314;DHT22;5202;49.138;10.090;2023-08-01T09:14:20;16.30;99.90
10314;DHT22;5202;49.138;10.090;2023-08-01T09:16:49;16.30;99.90
10314;DHT22;5202;49.138;10.090;2023-08-01T09:19:19;16.20;99.90
10314;DHT22;5202;49.138;10.090;2023-08-01T09:21:48;16.30;99.90
10314;DHT22;5202;49.138;10.090;2023-08-01T09:24:20;16.20;99.90
10314;DHT22;5202;49.138;10.090;2023-08-01T09:26:49;16.20;99.90
10314;DHT22;5202;49.138;10.090;2023-08-01T09:29:21;16.20;99.90
10314;DHT22;5202;49.138;10.090;2023-08-01T09:31:49;16.20;99.90
10314;DHT22;5202;49.138;10.090;2023-08-01T09:34:19;16.20;99.90
10314;DHT22;5202;49.138;10.090;2023-08-01T09:36:48;16.30;99.90
10314;DHT22;5202;49.138;10.090;2023-08-01T09:39:19;16.30;99.90
10314;DHT22;5202;49.138;10.090;2023-08-01T09:41:55;16.20;99.90
10314;DHT22;5202;49.138;10.090;2023-08-01T09:44:25;16.20;99.90
10314;DHT22;5202;49.138;10.090;2023-08-01T09:46:58;16.20;99.90
10314;DHT22;5202;49.138;10.090;2023-08-01T09:49:28;16.10;99.90
10314;DHT22;5202;49.138;10.090;2023-08-01T09:51:58;16.10;99.90
10314;DHT22;5202;49.138;10.090;2023-08-01T09:54:27;16.00;99.90
10314;DHT22;5202;49.138;10.090;2023-08-01T09:56:56;16.00;99.90
10314;DHT22;5202;49.138;10.090;2023-08-01T09:59:25;16.00;99.90
10314;DHT22;5202;49.138;10.090;2023-08-01T10:01:54;16.00;99.90
10314;DHT22;5202;49.138;10.090;2023-08-01T10:04:26;16.00;99.90
10314;DHT22;5202;49.138;10.090;2023-08-01T10:07:06;16.10;99.90
10314;DHT22;5202;49.138;10.090;2023-08-01T10:09:37;16.20;99.90
10314;DHT22;5202;49.138;10.090;2023-08-01T10:12:06;16.20;99.90
10314;DHT22;5202;49.138;10.090;2023-08-01T10:14:36;16.30;99.90
10314;DHT22;5202;49.138;10.090;2023-08-01T10:17:06;16.40;99.90
10314;DHT22;5202;49.138;10.090;2023-08-01T10:19:34;16.50;99.90
10314;DHT22;5202;49.138;10.090;2023-08-01T10:22:04;16.50;99.90
10314;DHT22;5202;49.138;10.090;2023-08-01T10:24:33;16.50;99.90
10314;DHT22;5202;49.138;10.090;2023-08-01T10:27:12;16.60;99.90
10314;DHT22;5202;49.138;10.090;2023-08-01T10:29:42;16.70;99.90
10314;DHT22;5202;49.138;10.090;2023-08-01T10:32:11;16.90;99.90
10314;DHT22;5202;49.138;10.090;2023-08-01T10:34:39;17.00;99.90
10314;DHT22;5202;49.138;10.090;2023-08-01T10:37:07;17.00;99.90
10314;DHT22;5202;49.138;10.090;2023-08-01T10:39:36;17.10;99.90
10314;DHT22;5202;49.138;10.090;2023-08-01T10:42:05;17.20;99.90
10314;DHT22;5202;49.138;10.090;2023-08-01T10:44:45;17.10;99.90
10314;DHT22;5202;49.138;10.090;2023-08-01T10:47:13;17.20;99.90
10314;DHT22;5202;49.138;10.090;2023-08-01T10:49:43;17.20;99.90
10314;DHT22;5202;49.138;10.090;2023-08-01T10:52:17;17.20;99.90
10314;DHT22;5202;49.138;10.090;2023-08-01T10:54:46;17.30;99.90
10314;DHT22;5202;49.138;10.090;2023-08-01T10:57:16;17.30;99.90
10314;DHT22;5202;49.138;10.090;2023-08-01T10:59:47;17.30;99.90
10314;DHT22;5202;49.138;10.090;2023-08-01T11:02:20;17.30;99.90
10314;DHT22;5202;49.138;10.090;2023-08-01T11:04:56;17.30;99.90
10314;DHT22;5202;49.138;10.090;2023-08-01T11:07:25;17.40;99.90
10314;DHT22;5202;49.138;10.090;2023-08-01T11:10:07;17.40;99.90
10314;DHT22;5202;49.138;10.090;2023-08-01T11:12:38;17.50;99.90
10314;DHT22;5202;49.138;10.090;2023-08-01T11:15:11;17.50;99.90
10314;DHT22;5202;49.138;10.090;2023-08-01T11:17:41;17.60;99.90
10314;DHT22;5202;49.138;10.090;2023-08-01T11:20:11;17.70;99.90
10314;DHT22;5202;49.138;10.090;2023-08-01T11:22:50;17.70;99.90
10314;DHT22;5202;49.138;10.090;2023-08-01T11:25:31;17.70;99.90
10314;DHT22;5202;49.138;10.090;2023-08-01T11:28:05;17.80;99.90
10314;DHT22;5202;49.138;10.090;2023-08-01T11:30:36;17.90;99.90
10314;DHT22;5202;49.138;10.090;2023-08-01T11:33:13;18.10;99.90
10314;DHT22;5202;49.138;10.090;2023-08-01T11:35:42;18.30;99.90
10314;DHT22;5202;49.138;10.090;2023-08-01T11:38:11;18.40;99.90
10314;DHT22;5202;49.138;10.090;2023-08-01T11:40:40;18.60;99.90
10314;DHT22;5202;49.138;10.090;2023-08-01T11:43:09;18.70;99.90
10314;DHT22;5202;49.138;10.090;2023-08-01T11:45:48;18.80;99.90
10314;DHT22;5202;49.138;10.090;2023-08-01T11:48:17;19.10;99.90
10314;DHT22;5202;49.138;10.090;2023-08-01T11:50:46;19.20;99.90
10314;DHT22;5202;49.138;10.090;2023-08-01T11:53:19;19.10;99.90
10314;DHT22;5202;49.138;10.090;2023-08-01T11:55:49;18.90;99.90
10314;DHT22;5202;49.138;10.090;2023-08-01T11:58:28;18.90;99.90
10314;DHT22;5202;49.138;10.090;2023-08-01T12:01:06;19.10;99.90
10314;DHT22;5202;49.138;10.090;2023-08-01T12:03:43;19.10;99.90
10314;DHT22;5202;49.138;10.090;2023-08-01T12:06:17;19.10;99.90
10314;DHT22;5202;49.138;10.090;2023-08-01T12:08:48;19.30;99.90
10314;DHT22;5202;49.138;10.090;2023-08-01T12:11:18;19.50;99.90
10314;DHT22;5202;49.138;10.090;2023-08-01T12:13:48;19.70;99.90
10314;DHT22;5202;49.138;10.090;2023-08-01T12:16:18;19.90;99.90
10314;DHT22;5202;49.138;10.090;2023-08-01T12:18:47;19.90;99.90
10314;DHT22;5202;49.138;10.090;2023-08-01T12:21:27;20.00;99.90
10314;DHT22;5202;49.138;10.090;2023-08-01T12:23:55;19.90;99.90
10314;DHT22;5202;49.138;10.090;2023-08-01T12:26:24;19.60;99.90
10314;DHT22;5202;49.138;10.090;2023-08-01T12:28:52;19.10;99.90
10314;DHT22;5202;49.138;10.090;2023-08-01T12:31:23;18.70;99.90
10314;DHT22;5202;49.138;10.090;2023-08-01T12:33:52;18.20;99.90
10314;DHT22;5202;49.138;10.090;2023-08-01T12:36:21;18.20;99.90
10314;DHT22;5202;49.138;10.090;2023-08-01T12:38:49;18.20;99.90
10314;DHT22;5202;49.138;10.090;2023-08-01T12:41:18;18.30;99.90
10314;DHT22;5202;49.138;10.090;2023-08-01T12:43:46;18.40;99.90
10314;DHT22;5202;49.138;10.090;2023-08-01T12:46:14;18.50;99.90
10314;DHT22;5202;49.138;10.090;2023-08-01T12:48:44;18.70;99.90
10314;DHT22;5202;49.138;10.090;2023-08-01T12:51:12;18.70;99.90
10314;DHT22;5202;49.138;10.090;2023-08-01T12:53:41;18.90;99.90
10314;DHT22;5202;49.138;10.090;2023-08-01T12:56:12;19.00;99.90
10314;DHT22;5202;49.138;10.090;2023-08-01T12:58:41;19.20;99.90
10314;DHT22;5202;49.138;10.090;2023-08-01T13:01:09;19.40;99.90
10314;DHT22;5202;49.138;10.090;2023-08-01T13:03:38;19.60;99.90
10314;DHT22;5202;49.138;10.090;2023-08-01T13:06:10;20.00;99.90
10314;DHT22;5202;49.138;10.090;2023-08-01T13:08:39;20.20;99.90
10314;DHT22;5202;49.138;10.090;2023-08-01T13:11:11;20.30;99.90
10314;DHT22;5202;49.138;10.090;2023-08-01T13:13:41;20.30;99.30
10314;DHT22;5202;49.138;10.090;2023-08-01T13:16:10;20.20;99.90
10314;DHT22;5202;49.138;10.090;2023-08-01T13:18:40;20.30;98.70
10314;DHT22;5202;49.138;10.090;2023-08-01T13:21:12;20.20;98.40
10314;DHT22;5202;49.138;10.090;2023-08-01T13:23:41;20.10;96.40
10314;DHT22;5202;49.138;10.090;2023-08-01T13:26:10;20.20;95.80
10314;DHT22;5202;49.138;10.090;2023-08-01T13:28:38;20.30;95.40
10314;DHT22;5202;49.138;10.090;2023-08-01T13:31:06;20.40;95.60
10314;DHT22;5202;49.138;10.090;2023-08-01T13:33:34;20.80;96.70
10314;DHT22;5202;49.138;10.090;2023-08-01T13:36:03;20.90;94.20
10314;DHT22;5202;49.138;10.090;2023-08-01T13:38:33;20.90;94.60
10314;DHT22;5202;49.138;10.090;2023-08-01T13:41:01;20.80;93.30
10314;DHT22;5202;49.138;10.090;2023-08-01T13:43:31;20.80;94.00
10314;DHT22;5202;49.138;10.090;2023-08-01T13:45:59;20.90;93.60
10314;DHT22;5202;49.138;10.090;2023-08-01T13:48:33;20.90;93.00
10314;DHT22;5202;49.138;10.090;2023-08-01T13:51:01;21.00;92.30
10314;DHT22;5202;49.138;10.090;2023-08-01T13:53:30;21.10;92.10
10314;DHT22;5202;49.138;10.090;2023-08-01T13:55:59;21.10;91.20
10314;DHT22;5202;49.138;10.090;2023-08-01T13:58:28;21.10;90.90
10314;DHT22;5202;49.138;10.090;2023-08-01T14:01:01;21.10;90.70
10314;DHT22;5202;49.138;10.090;2023-08-01T14:03:30;21.10;90.80
10314;DHT22;5202;49.138;10.090;2023-08-01T14:06:06;21.10;90.70
10314;DHT22;5202;49.138;10.090;2023-08-01T14:08:36;20.90;91.20
10314;DHT22;5202;49.138;10.090;2023-08-01T14:11:07;20.90;90.10
10314;DHT22;5202;49.138;10.090;2023-08-01T14:13:36;20.90;90.30
10314;DHT22;5202;49.138;10.090;2023-08-01T14:16:04;20.70;90.80
10314;DHT22;5202;49.138;10.090;2023-08-01T14:18:33;20.60;90.80
10314;DHT22;5202;49.138;10.090;2023-08-01T14:21:01;20.60;91.60
10314;DHT22;5202;49.138;10.090;2023-08-01T14:23:29;20.60;91.70
10314;DHT22;5202;49.138;10.090;2023-08-01T14:25:58;20.70;91.40
10314;DHT22;5202;49.138;10.090;2023-08-01T14:28:28;20.70;91.50
10314;DHT22;5202;49.138;10.090;2023-08-01T14:31:00;20.80;90.80
10314;DHT22;5202;49.138;10.090;2023-08-01T14:33:28;20.70;90.60
10314;DHT22;5202;49.138;10.090;2023-08-01T14:35:57;20.50;90.70
10314;DHT22;5202;49.138;10.090;2023-08-01T14:38:25;20.30;91.10
10314;DHT22;5202;49.138;10.090;2023-08-01T14:40:53;20.20;90.50
10314;DHT22;5202;49.138;10.090;2023-08-01T14:43:38;20.40;90.70
10314;DHT22;5202;49.138;10.090;2023-08-01T14:46:07;20.40;90.90
10314;DHT22;5202;49.138;10.090;2023-08-01T14:48:35;20.30;90.40
10314;DHT22;5202;49.138;10.090;2023-08-01T14:51:05;20.30;90.40
10314;DHT22;5202;49.138;10.090;2023-08-01T14:53:34;20.20;90.60
10314;DHT22;5202;49.138;10.090;2023-08-01T14:56:02;20.20;91.20
10314;DHT22;5202;49.138;10.090;2023-08-01T14:58:33;20.20;91.60
10314;DHT22;5202;49.138;10.090;2023-08-01T15:01:13;20.40;92.00
10314;DHT22;5202;49.138;10.090;2023-08-01T15:03:42;20.70;91.90
10314;DHT22;5202;49.138;10.090;2023-08-01T15:06:11;20.90;90.60
10314;DHT22;5202;49.138;10.090;2023-08-01T15:08:40;20.90;89.80
10314;DHT22;5202;49.138;10.090;2023-08-01T15:11:08;20.90;89.90
10314;DHT22;5202;49.138;10.090;2023-08-01T15:13:37;20.90;89.20
10314;DHT22;5202;49.138;10.090;2023-08-01T15:16:09;21.00;90.00
10314;DHT22;5202;49.138;10.090;2023-08-01T15:18:40;21.10;88.30
10314;DHT22;5202;49.138;10.090;2023-08-01T15:21:09;21.00;88.70
10314;DHT22;5202;49.138;10.090;2023-08-01T15:23:38;21.00;89.00
10314;DHT22;5202;49.138;10.090;2023-08-01T15:26:06;20.90;89.90
10314;DHT22;5202;49.138;10.090;2023-08-01T15:28:34;20.90;88.30
10314;DHT22;5202;49.138;10.090;2023-08-01T15:31:05;20.90;86.70
10314;DHT22;5202;49.138;10.090;2023-08-01T15:33:35;20.70;87.00
10314;DHT22;5202;49.138;10.090;2023-08-01T15:36:07;20.70;88.20
10314;DHT22;5202;49.138;10.090;2023-08-01T15:38:37;20.70;88.70
10314;DHT22;5202;49.138;10.090;2023-08-01T15:41:07;20.80;88.30
10314;DHT22;5202;49.138;10.090;2023-08-01T15:43:37;20.80;86.60
10314;DHT22;5202;49.138;10.090;2023-08-01T15:46:08;20.70;86.60